Time;durP1;ratioP1;P1;durP2;ratioP2;P2;SDS_P1;SDS_P2;PMS_P1;PMS_P2;Temp;Humidity;BMP_temperature;BMP_pressure;BME280_temperature;BME280_humidity;BME280_pressure;Samples;Min_cycle;Max_cycle;Signal;HPM_P1;HPM_P2
2022/06/23 00:01:18;;;;;;;;;;;;;;;19.59;76.31;94984.53;5134467;27;1980;-49
2022/06/23 00:03:45;;;;;;;;;;;;;;;19.65;75.90;94980.94;5134427;27;1095;-49
2022/06/23 00:06:24;;;;;;;;;;;;;;;19.57;76.56;94978.50;5139708;27;1243;-49
2022/06/23 00:08:50;;;;;;;;;;;;;;;19.63;76.41;94974.91;5155451;27;1000;-49
2022/06/23 00:11:23;;;;;;;;;;;;;;;19.79;74.63;94979.00;5155170;27;968;-49
2022/06/23 00:13:50;;;;;;;;;;;;;;;19.87;74.62;94976.81;5155216;27;1870;-49
2022/06/23 00:16:22;;;;;;;;;;;;;;;19.89;75.23;94984.72;5154948;27;1015;-49
2022/06/23 00:18:48;;;;;;;;;;;;;;;19.77;75.60;94975.66;5137042;27;981;-49
2022/06/23 00:21:22;;;;;;;;;;;;;;;19.31;77.08;94970.38;5154651;27;1901;-49
2022/06/23 00:23:50;;;;;;;;;;;;;;;19.34;76.91;94969.09;5154881;27;1036;-49
2022/06/23 00:26:21;;;;;;;;;;;;;;;19.46;76.90;94966.50;5154934;27;1032;-49
2022/06/23 00:29:10;;;;;;;;;;;;;;;19.40;76.47;94967.38;5154954;27;1048;-49
2022/06/23 00:31:38;;;;;;;;;;;;;;;19.59;75.67;94963.66;5141502;27;2167;-49
2022/06/23 00:34:22;;;;;;;;;;;;;;;19.69;75.54;94964.03;5155104;27;956;-49
2022/06/23 00:37:03;;;;;;;;;;;;;;;19.49;76.31;94957.94;5154729;27;1036;-49
2022/06/23 00:39:29;;;;;;;;;;;;;;;19.16;77.79;94969.00;5154721;27;1986;-49
2022/06/23 00:41:56;;;;;;;;;;;;;;;18.94;78.25;94950.41;5154940;27;1039;-49
2022/06/23 00:44:43;;;;;;;;;;;;;;;19.09;77.45;94937.38;5154946;27;987;-49
2022/06/23 00:47:14;;;;;;;;;;;;;;;19.24;77.45;94949.78;5154707;27;1094;-49
2022/06/23 00:49:46;;;;;;;;;;;;;;;19.28;76.73;94937.47;5154796;27;1059;-49
2022/06/23 00:52:18;;;;;;;;;;;;;;;19.19;77.49;94936.06;5154863;27;1033;-49
2022/06/23 00:54:48;;;;;;;;;;;;;;;19.03;78.57;94942.84;5154702;27;984;-49
2022/06/23 00:57:24;;;;;;;;;;;;;;;19.02;77.99;94939.28;5154533;27;1051;-49
2022/06/23 00:59:57;;;;;;;;;;;;;;;19.09;77.88;94937.38;5154651;27;1933;-49
2022/06/23 01:02:30;;;;;;;;;;;;;;;19.10;77.69;94938.19;5156121;27;1098;-49
2022/06/23 01:05:05;;;;;;;;;;;;;;;18.91;78.50;94940.00;5159017;27;1015;-49
2022/06/23 01:07:38;;;;;;;;;;;;;;;19.00;77.96;94937.88;5141570;27;1180;-49
2022/06/23 01:10:24;;;;;;;;;;;;;;;19.23;76.92;94932.69;5137983;27;1015;-49
2022/06/23 01:12:59;;;;;;;;;;;;;;;19.13;77.83;94926.09;5137575;27;996;-49
2022/06/23 01:15:34;;;;;;;;;;;;;;;18.94;78.70;94917.06;5137931;27;957;-49
2022/06/23 01:18:00;;;;;;;;;;;;;;;18.71;79.16;94913.00;5137668;27;1086;-49
2022/06/23 01:20:35;;;;;;;;;;;;;;;18.76;79.71;94917.75;5137467;27;1906;-49
2022/06/23 01:23:12;;;;;;;;;;;;;;;18.96;78.52;94923.94;5137620;27;1006;-49
2022/06/23 01:25:41;;;;;;;;;;;;;;;18.89;78.51;94931.25;5137253;27;1039;-49
2022/06/23 01:28:09;;;;;;;;;;;;;;;18.70;78.95;94925.72;5137357;27;1028;-49
2022/06/23 01:30:55;;;;;;;;;;;;;;;18.61;79.33;94918.91;5137397;27;1987;-49
2022/06/23 01:33:28;;;;;;;;;;;;;;;18.36;80.39;94913.38;5119946;27;1157;-49
2022/06/23 01:36:02;;;;;;;;;;;;;;;18.39;80.66;94909.44;5137276;27;965;-49
2022/06/23 01:38:46;;;;;;;;;;;;;;;18.75;78.40;94914.25;5119111;27;1105;-49
2022/06/23 01:41:21;;;;;;;;;;;;;;;18.70;79.09;94919.47;5137093;27;1975;-49
2022/06/23 01:43:59;;;;;;;;;;;;;;;18.65;79.22;94917.41;5137283;27;981;-49
2022/06/23 01:46:29;;;;;;;;;;;;;;;18.67;78.83;94909.09;5136846;27;1076;-49
2022/06/23 01:48:58;;;;;;;;;;;;;;;18.64;78.80;94913.03;5137154;27;1086;-49
2022/06/23 01:51:24;;;;;;;;;;;;;;;18.58;79.51;94919.31;5136815;27;1067;-49
2022/06/23 01:53:54;;;;;;;;;;;;;;;18.54;79.93;94916.22;5137000;27;1031;-49
2022/06/23 01:56:27;;;;;;;;;;;;;;;18.49;79.76;94913.31;5136962;27;1059;-49
2022/06/23 01:58:57;;;;;;;;;;;;;;;18.44;80.03;94896.06;5136864;27;960;-48
2022/06/23 02:01:46;;;;;;;;;;;;;;;18.50;79.63;94900.66;5136912;27;1913;-49
2022/06/23 02:04:22;;;;;;;;;;;;;;;18.49;79.97;94894.38;5137045;27;965;-49
2022/06/23 02:06:57;;;;;;;;;;;;;;;18.38;80.37;94896.94;5147304;27;1180;-49
2022/06/23 02:09:28;;;;;;;;;;;;;;;18.36;80.70;94899.03;5139085;27;1578;-49
2022/06/23 02:11:54;;;;;;;;;;;;;;;18.39;80.70;94904.03;5157251;27;1040;-48
2022/06/23 02:14:40;;;;;;;;;;;;;;;18.35;81.30;94914.44;5157203;27;968;-49
2022/06/23 02:17:30;;;;;;;;;;;;;;;18.40;80.29;94906.53;5156974;27;1383;-48
2022/06/23 02:19:59;;;;;;;;;;;;;;;18.45;80.29;94898.56;5143755;27;1910;-49
2022/06/23 02:22:31;;;;;;;;;;;;;;;18.12;80.78;94896.84;5156973;27;1024;-49
2022/06/23 02:25:03;;;;;;;;;;;;;;;18.16;80.93;94896.44;5157109;27;1039;-49
2022/06/23 02:27:43;;;;;;;;;;;;;;;18.19;80.92;94895.97;5156946;27;1040;-48
2022/06/23 02:30:15;;;;;;;;;;;;;;;18.07;81.35;94893.13;5157031;27;1028;-49
2022/06/23 02:32:53;;;;;;;;;;;;;;;18.05;81.31;94900.63;5156943;27;1052;-49
2022/06/23 02:35:22;;;;;;;;;;;;;;;17.95;81.69;94901.91;5157144;27;980;-48
2022/06/23 02:37:51;;;;;;;;;;;;;;;17.86;81.86;94915.88;5156898;27;956;-49
2022/06/23 02:40:26;;;;;;;;;;;;;;;17.87;82.33;94920.22;5156827;27;1917;-49
2022/06/23 02:42:59;;;;;;;;;;;;;;;17.97;81.55;94917.09;5156606;27;1098;-49
2022/06/23 02:45:31;;;;;;;;;;;;;;;17.87;81.72;94912.09;5156892;27;1048;-49
2022/06/23 02:48:16;;;;;;;;;;;;;;;17.72;82.40;94915.88;5156693;27;952;-49
2022/06/23 02:50:42;;;;;;;;;;;;;;;17.69;82.92;94920.88;5156633;27;1035;-49
2022/06/23 02:53:23;;;;;;;;;;;;;;;17.60;82.92;94908.63;5156349;27;1040;-49
2022/06/23 02:56:01;;;;;;;;;;;;;;;17.56;83.61;94913.59;5156790;27;1039;-49
2022/06/23 02:58:32;;;;;;;;;;;;;;;17.66;83.21;94916.72;5156271;27;1079;-49
2022/06/23 03:01:05;;;;;;;;;;;;;;;17.74;83.21;94921.91;5156527;27;1976;-49
2022/06/23 03:03:37;;;;;;;;;;;;;;;17.72;82.23;94909.66;5156077;27;1223;-48
2022/06/23 03:06:03;;;;;;;;;;;;;;;17.56;83.32;94905.50;5151909;27;1176;-49
2022/06/23 03:08:29;;;;;;;;;;;;;;;17.67;83.44;94912.13;5135528;27;1022;-49
2022/06/23 03:10:58;;;;;;;;;;;;;;;17.74;82.85;94913.78;5135751;27;1016;-49
2022/06/23 03:13:43;;;;;;;;;;;;;;;17.77;83.13;94907.13;5135171;27;1035;-49
2022/06/23 03:16:14;;;;;;;;;;;;;;;17.67;83.05;94912.13;5135351;27;965;-49
2022/06/23 03:18:46;;;;;;;;;;;;;;;17.70;83.30;94917.97;5117100;27;1041;-49
2022/06/23 03:21:16;;;;;;;;;;;;;;;17.73;83.15;94906.69;5135258;27;1975;-49
2022/06/23 03:23:46;;;;;;;;;;;;;;;17.68;83.28;94903.81;5134891;27;997;-49
2022/06/23 03:26:12;;;;;;;;;;;;;;;17.85;82.92;94916.91;5135046;27;1037;-49
2022/06/23 03:28:43;;;;;;;;;;;;;;;18.02;82.84;94903.75;5134814;27;1039;-49
2022/06/23 03:31:24;;;;;;;;;;;;;;;17.94;83.01;94902.94;5135400;27;960;-49
2022/06/23 03:34:00;;;;;;;;;;;;;;;18.07;83.69;94902.06;5134947;27;933;-49
2022/06/23 03:36:35;;;;;;;;;;;;;;;18.19;82.47;94904.94;5135034;27;965;-49
2022/06/23 03:42:11;;;;;;;;;;;;;;;18.25;82.63;94908.66;5134917;27;1029;-48
2022/06/23 03:44:40;;;;;;;;;;;;;;;18.12;83.33;94898.72;5134734;27;972;-48
2022/06/23 03:47:32;;;;;;;;;;;;;;;18.25;82.56;94906.78;5134896;27;1033;-49
2022/06/23 03:50:04;;;;;;;;;;;;;;;18.38;82.76;94911.28;5095657;27;1707;-49
2022/06/23 03:52:41;;;;;;;;;;;;;;;18.56;82.47;94915.19;5134854;27;995;-49
2022/06/23 03:55:17;;;;;;;;;;;;;;;18.67;82.70;94911.78;5134489;27;1044;-49
2022/06/23 03:57:46;;;;;;;;;;;;;;;18.75;82.26;94910.72;5116618;27;1416;-49
2022/06/23 04:00:17;;;;;;;;;;;;;;;18.98;81.17;94916.41;5134390;27;1971;-49
2022/06/23 04:02:45;;;;;;;;;;;;;;;19.11;81.63;94910.06;5134801;27;1020;-49
2022/06/23 04:05:27;;;;;;;;;;;;;;;19.05;81.78;94905.53;5134356;27;1922;-49
2022/06/23 04:07:56;;;;;;;;;;;;;;;19.01;82.63;94913.28;5154466;27;1153;-49
2022/06/23 04:10:30;;;;;;;;;;;;;;;19.10;83.45;94906.53;5154928;27;1055;-49
2022/06/23 04:12:59;;;;;;;;;;;;;;;19.24;82.52;94904.53;5155266;27;1095;-49
2022/06/23 04:15:28;;;;;;;;;;;;;;;19.43;81.85;94904.59;5136713;27;1052;-49
2022/06/23 04:17:57;;;;;;;;;;;;;;;19.60;82.50;94894.03;5155079;27;1022;-49
2022/06/23 04:20:41;;;;;;;;;;;;;;;19.61;82.96;94891.06;5154708;27;1993;-49
2022/06/23 04:23:07;;;;;;;;;;;;;;;19.62;83.07;94900.03;5155009;27;956;-49
2022/06/23 04:25:42;;;;;;;;;;;;;;;19.70;82.73;94892.44;5154586;27;1079;-49
2022/06/23 04:28:17;;;;;;;;;;;;;;;19.94;79.10;94892.66;5155214;27;969;-49
2022/06/23 04:30:43;;;;;;;;;;;;;;;20.16;78.56;94890.28;5154796;27;1024;-49
2022/06/23 04:33:14;;;;;;;;;;;;;;;20.35;79.69;94895.72;5155033;27;956;-48
2022/06/23 04:35:41;;;;;;;;;;;;;;;20.40;80.03;94899.41;5155348;27;961;-49
2022/06/23 04:38:25;;;;;;;;;;;;;;;20.51;79.84;94902.38;5159535;27;1190;-48
2022/06/23 04:40:57;;;;;;;;;;;;;;;20.73;78.40;94909.00;5159087;27;1909;-48
2022/06/23 04:43:29;;;;;;;;;;;;;;;20.83;78.16;94919.31;5159450;27;1083;-48
2022/06/23 04:46:14;;;;;;;;;;;;;;;21.03;76.46;94924.47;5158805;27;1040;-48
2022/06/23 04:48:57;;;;;;;;;;;;;;;20.92;77.81;94917.13;5159212;27;965;-48
2022/06/23 04:51:27;;;;;;;;;;;;;;;20.84;78.87;94915.56;5159004;27;1059;-48
2022/06/23 04:54:08;;;;;;;;;;;;;;;20.82;78.35;94923.09;5158581;27;1059;-48
2022/06/23 04:56:34;;;;;;;;;;;;;;;20.90;77.16;94913.81;5158734;27;1042;-48
2022/06/23 04:59:23;;;;;;;;;;;;;;;20.84;76.50;94923.72;5158985;27;991;-50
2022/06/23 05:01:51;;;;;;;;;;;;;;;21.00;77.27;94922.22;5159026;27;1008;-49
2022/06/23 05:04:22;;;;;;;;;;;;;;;21.11;76.20;94920.59;5158565;27;1067;-49
2022/06/23 05:06:51;;;;;;;;;;;;;;;21.14;75.59;94915.53;5148005;27;1220;-49
2022/06/23 05:09:17;;;;;;;;;;;;;;;21.36;74.94;94902.22;5137723;27;1036;-50
2022/06/23 05:11:46;;;;;;;;;;;;;;;21.55;71.71;94894.81;5137733;27;988;-49
2022/06/23 05:14:24;;;;;;;;;;;;;;;21.82;70.61;94892.44;5137927;27;1052;-49
2022/06/23 05:16:53;;;;;;;;;;;;;;;21.79;72.58;94873.03;5137832;27;988;-52
2022/06/23 05:19:23;;;;;;;;;;;;;;;21.75;74.14;94875.41;5137553;27;1910;-48
2022/06/23 05:21:52;;;;;;;;;;;;;;;21.89;72.93;94867.81;5119412;27;1055;-48
2022/06/23 05:24:20;;;;;;;;;;;;;;;22.14;74.61;94869.44;5137470;27;1031;-49
2022/06/23 05:26:49;;;;;;;;;;;;;;;22.42;71.41;94879.56;5137323;27;1138;-49
2022/06/23 05:29:18;;;;;;;;;;;;;;;22.57;71.11;94884.50;5137621;27;998;-49
2022/06/23 05:31:47;;;;;;;;;;;;;;;22.68;71.67;94891.78;5137303;27;1036;-50
2022/06/23 05:34:19;;;;;;;;;;;;;;;22.66;70.26;94883.03;5137401;27;956;-49
2022/06/23 05:36:52;;;;;;;;;;;;;;;22.72;70.39;94890.22;5137375;27;1032;-49
2022/06/23 05:39:21;;;;;;;;;;;;;;;22.74;70.66;94904.44;5119181;27;2017;-49
2022/06/23 05:41:51;;;;;;;;;;;;;;;22.89;69.10;94911.25;5119016;27;1060;-49
2022/06/23 05:44:20;;;;;;;;;;;;;;;22.98;68.84;94917.97;5137298;27;1013;-49
2022/06/23 05:46:47;;;;;;;;;;;;;;;23.11;68.87;94923.16;5136866;27;968;-49
2022/06/23 05:49:25;;;;;;;;;;;;;;;23.14;67.07;94919.09;5136624;27;1036;-49
2022/06/23 05:51:51;;;;;;;;;;;;;;;23.27;67.23;94910.63;5137309;27;1024;-49
2022/06/23 05:54:25;;;;;;;;;;;;;;;23.11;65.48;94912.25;5136863;27;996;-48
2022/06/23 05:56:51;;;;;;;;;;;;;;;22.95;67.36;94913.00;5136860;27;976;-48
2022/06/23 05:59:24;;;;;;;;;;;;;;;23.10;67.84;94907.84;5136760;27;1898;-49
2022/06/23 06:01:53;;;;;;;;;;;;;;;23.29;66.60;94899.47;5136749;27;1074;-49
2022/06/23 06:04:31;;;;;;;;;;;;;;;23.30;67.55;94910.13;5137012;27;1043;-49
2022/06/23 06:06:58;;;;;;;;;;;;;;;23.44;65.59;94915.25;5148490;27;1216;-50
2022/06/23 06:09:35;;;;;;;;;;;;;;;23.72;64.45;94914.34;5157450;27;960;-49
2022/06/23 06:12:04;;;;;;;;;;;;;;;23.80;65.14;94916.69;5157212;27;1343;-49
2022/06/23 06:14:31;;;;;;;;;;;;;;;23.75;64.05;94909.22;5157542;27;1011;-49
2022/06/23 06:16:59;;;;;;;;;;;;;;;23.90;64.81;94907.81;5138941;27;1063;-49
2022/06/23 06:19:25;;;;;;;;;;;;;;;24.26;64.30;94916.50;5157040;27;2000;-49
2022/06/23 06:21:53;;;;;;;;;;;;;;;24.41;63.10;94918.63;5157178;27;1025;-49
2022/06/23 06:24:23;;;;;;;;;;;;;;;24.22;64.75;94924.38;5156918;27;1027;-49
2022/06/23 06:26:51;;;;;;;;;;;;;;;24.18;64.75;94928.69;5156987;27;1103;-49
2022/06/23 06:29:31;;;;;;;;;;;;;;;24.19;64.19;94922.19;5157291;27;1224;-49
2022/06/23 06:32:03;;;;;;;;;;;;;;;24.26;65.24;94925.53;5156907;27;1032;-49
2022/06/23 06:34:42;;;;;;;;;;;;;;;24.42;63.57;94934.78;5156975;27;979;-49
2022/06/23 06:37:11;;;;;;;;;;;;;;;24.57;62.67;94934.19;5157075;27;979;-49
2022/06/23 06:39:39;;;;;;;;;;;;;;;24.60;63.66;94932.84;5156923;27;1982;-49
2022/06/23 06:42:26;;;;;;;;;;;;;;;24.74;62.77;94936.84;5138422;27;1031;-49
2022/06/23 06:44:53;;;;;;;;;;;;;;;24.88;63.18;94935.34;5156664;27;1118;-49
2022/06/23 06:47:24;;;;;;;;;;;;;;;25.01;62.89;94945.06;5156512;27;1072;-49
2022/06/23 06:49:52;;;;;;;;;;;;;;;25.08;63.42;94947.59;5156981;27;1110;-49
2022/06/23 06:52:18;;;;;;;;;;;;;;;25.17;62.67;94947.97;5156630;27;1066;-49
2022/06/23 06:54:51;;;;;;;;;;;;;;;25.25;62.36;94947.53;5156321;27;1055;-49
2022/06/23 06:57:22;;;;;;;;;;;;;;;25.43;62.66;94944.44;5156377;27;1977;-49
2022/06/23 06:59:48;;;;;;;;;;;;;;;25.49;61.84;94954.34;5155344;27;2061;-49
2022/06/23 07:02:18;;;;;;;;;;;;;;;25.58;60.16;94940.19;5156283;27;1047;-49
2022/06/23 07:05:06;;;;;;;;;;;;;;;25.70;59.40;94941.66;5156314;27;1163;-49
2022/06/23 07:07:39;;;;;;;;;;;;;;;25.78;59.07;94936.78;5139201;27;1279;-49
2022/06/23 07:10:07;;;;;;;;;;;;;;;26.03;57.98;94938.94;5117326;27;1012;-49
2022/06/23 07:12:51;;;;;;;;;;;;;;;26.18;56.09;94955.47;5135223;27;1044;-49
2022/06/23 07:15:23;;;;;;;;;;;;;;;26.25;57.42;94952.47;5135671;27;1053;-49
2022/06/23 07:17:58;;;;;;;;;;;;;;;26.35;56.90;94958.03;5135629;27;989;-49
2022/06/23 07:20:36;;;;;;;;;;;;;;;26.21;55.32;94968.63;5134921;27;1996;-49
2022/06/23 07:23:04;;;;;;;;;;;;;;;26.15;54.61;94966.13;5135110;27;1031;-49
2022/06/23 07:25:34;;;;;;;;;;;;;;;26.24;56.67;94968.09;5135192;27;968;-49
2022/06/23 07:28:03;;;;;;;;;;;;;;;26.46;56.07;94967.13;5135107;27;1068;-49
2022/06/23 07:30:52;;;;;;;;;;;;;;;26.60;56.66;94970.28;5135003;27;1020;-49
2022/06/23 07:33:27;;;;;;;;;;;;;;;26.84;55.73;94963.25;5134948;27;981;-49
2022/06/23 07:35:53;;;;;;;;;;;;;;;27.01;55.20;94952.03;5135010;27;1016;-49
2022/06/23 07:38:25;;;;;;;;;;;;;;;26.76;56.68;94944.56;5135005;27;953;-49
2022/06/23 07:40:55;;;;;;;;;;;;;;;26.17;58.17;94950.25;5134954;27;1971;-49
2022/06/23 07:43:22;;;;;;;;;;;;;;;25.70;58.87;94951.78;5134864;27;997;-49
2022/06/23 07:45:53;;;;;;;;;;;;;;;25.50;60.72;94953.25;5134890;27;1051;-49
2022/06/23 07:48:19;;;;;;;;;;;;;;;25.41;60.80;94943.88;5134708;27;1028;-49
2022/06/23 07:50:46;;;;;;;;;;;;;;;25.60;60.52;94940.75;5134959;27;957;-49
2022/06/23 07:53:21;;;;;;;;;;;;;;;26.14;60.84;94934.31;5116555;27;971;-49
2022/06/23 07:55:47;;;;;;;;;;;;;;;26.48;59.88;94938.38;5134760;27;1040;-49
2022/06/23 07:58:15;;;;;;;;;;;;;;;26.49;58.63;94936.47;5134526;27;1063;-49
2022/06/23 08:00:43;;;;;;;;;;;;;;;26.48;58.43;94940.28;5134501;27;1981;-49
2022/06/23 08:03:12;;;;;;;;;;;;;;;26.45;59.33;94938.09;5134653;27;1015;-49
2022/06/23 08:05:48;;;;;;;;;;;;;;;26.75;60.01;94937.44;5135070;27;1188;-49
2022/06/23 08:08:18;;;;;;;;;;;;;;;27.02;59.85;94928.19;5155233;27;961;-49
2022/06/23 08:10:45;;;;;;;;;;;;;;;27.34;60.28;94936.25;5154869;27;971;-49
2022/06/23 08:13:20;;;;;;;;;;;;;;;27.19;59.00;94934.28;5154948;27;1024;-49
2022/06/23 08:18:34;;;;;;;;;;;;;;;27.11;57.39;94933.97;5155031;27;971;-49
2022/06/23 08:21:18;;;;;;;;;;;;;;;26.76;58.72;94922.63;5154921;27;1894;-49
2022/06/23 08:23:48;;;;;;;;;;;;;;;26.61;59.09;94914.34;5154845;27;1090;-49
2022/06/23 08:26:16;;;;;;;;;;;;;;;26.63;59.56;94923.94;5155175;27;1080;-49
2022/06/23 08:28:43;;;;;;;;;;;;;;;26.58;59.81;94921.16;5154876;27;972;-49
2022/06/23 08:31:09;;;;;;;;;;;;;;;26.56;59.86;94912.38;5155084;27;964;-49
2022/06/23 08:33:35;;;;;;;;;;;;;;;26.92;58.97;94912.53;5154938;27;944;-49
2022/06/23 08:36:07;;;;;;;;;;;;;;;26.55;58.89;94920.88;5154877;27;971;-49
2022/06/23 08:38:40;;;;;;;;;;;;;;;26.19;60.47;94920.66;5154735;27;1110;-49
2022/06/23 08:41:26;;;;;;;;;;;;;;;26.50;59.04;94916.16;5154841;27;1911;-49
2022/06/23 08:43:59;;;;;;;;;;;;;;;27.13;59.29;94918.91;5154824;27;1007;-49
2022/06/23 08:46:39;;;;;;;;;;;;;;;27.40;57.95;94920.63;5154719;27;1988;-49
2022/06/23 08:49:07;;;;;;;;;;;;;;;27.46;58.02;94919.53;5154888;27;1021;-49
2022/06/23 08:51:39;;;;;;;;;;;;;;;27.49;57.09;94913.50;5154843;27;960;-49
2022/06/23 08:54:05;;;;;;;;;;;;;;;27.43;56.05;94915.41;5154512;27;1011;-49
2022/06/23 08:56:48;;;;;;;;;;;;;;;27.42;55.49;94916.50;5154623;27;1032;-49
2022/06/23 08:59:22;;;;;;;;;;;;;;;27.34;56.91;94908.81;5154518;27;1039;-49
2022/06/23 09:01:48;;;;;;;;;;;;;;;27.28;57.48;94901.69;5154709;27;1091;-49
2022/06/23 09:04:18;;;;;;;;;;;;;;;27.58;56.55;94894.53;5154675;27;1067;-49
2022/06/23 09:06:46;;;;;;;;;;;;;;;27.59;57.19;94896.19;5144694;27;1180;-49
2022/06/23 09:09:39;;;;;;;;;;;;;;;27.57;56.70;94898.41;5133699;28;1056;-49
2022/06/23 09:12:14;;;;;;;;;;;;;;;27.43;57.06;94898.94;5094926;28;1532;-49
2022/06/23 09:14:43;;;;;;;;;;;;;;;27.26;56.62;94899.19;5133726;28;1060;-49
2022/06/23 09:17:15;;;;;;;;;;;;;;;27.36;58.17;94901.13;5133952;28;984;-49
2022/06/23 09:19:41;;;;;;;;;;;;;;;27.62;57.08;94898.38;5133319;28;1905;-49
2022/06/23 09:22:13;;;;;;;;;;;;;;;27.79;56.59;94895.34;5134329;27;1016;-49
2022/06/23 09:24:57;;;;;;;;;;;;;;;27.54;56.03;94891.50;5137249;27;980;-49
2022/06/23 09:27:29;;;;;;;;;;;;;;;27.51;58.57;94893.97;5137620;27;1075;-49
2022/06/23 09:29:57;;;;;;;;;;;;;;;27.38;58.59;94881.63;5137487;27;1030;-49
2022/06/23 09:32:43;;;;;;;;;;;;;;;27.26;58.34;94887.38;5137362;27;1028;-49
2022/06/23 09:35:28;;;;;;;;;;;;;;;27.26;59.24;94888.22;5137357;27;1090;-49
2022/06/23 09:38:09;;;;;;;;;;;;;;;27.13;58.29;94885.13;5137526;27;1291;-51
2022/06/23 09:40:49;;;;;;;;;;;;;;;27.04;58.55;94902.13;5137013;27;1886;-49
2022/06/23 09:43:24;;;;;;;;;;;;;;;27.09;59.95;94882.13;5137577;27;1047;-49
2022/06/23 09:45:53;;;;;;;;;;;;;;;27.35;59.10;94885.75;5137325;27;991;-49
2022/06/23 09:48:38;;;;;;;;;;;;;;;27.30;58.54;94879.41;5137170;27;1040;-49
2022/06/23 09:51:10;;;;;;;;;;;;;;;27.18;60.74;94888.69;5137095;27;1052;-49
2022/06/23 09:53:54;;;;;;;;;;;;;;;27.07;60.46;94885.13;5137033;27;1023;-49
2022/06/23 09:56:29;;;;;;;;;;;;;;;27.10;60.79;94888.44;5137233;27;1032;-49
2022/06/23 09:59:07;;;;;;;;;;;;;;;27.15;61.36;94886.53;5137025;27;948;-49
2022/06/23 10:01:39;;;;;;;;;;;;;;;27.61;60.54;94870.09;5136762;27;1905;-49
2022/06/23 10:04:34;;;;;;;;;;;;;;;28.06;57.95;94867.63;5136874;27;1039;-49
2022/06/23 10:07:03;;;;;;;;;;;;;;;27.87;58.73;94867.34;5127330;27;1905;-49
2022/06/23 10:09:29;;;;;;;;;;;;;;;27.96;58.27;94862.13;5157358;27;1035;-49
2022/06/23 10:12:31;;;;;;;;;;;;;;;28.19;55.33;94852.44;5157478;27;1023;-49
2022/06/23 10:15:17;;;;;;;;;;;;;;;28.23;58.49;94850.81;5052953;28;1307;-50
2022/06/23 10:17:49;;;;;;;;;;;;;;;28.10;56.81;94848.66;5143806;27;1655;-50
2022/06/23 10:20:29;;;;;;;;;;;;;;;28.15;57.15;94848.59;5156872;27;1909;-49
2022/06/23 10:22:55;;;;;;;;;;;;;;;28.55;55.84;94849.59;5157570;27;968;-50
2022/06/23 10:25:21;;;;;;;;;;;;;;;28.40;56.29;94848.53;5157020;27;1028;-50
2022/06/23 10:28:06;;;;;;;;;;;;;;;28.28;56.73;94842.53;5157325;27;1039;-49
2022/06/23 10:30:51;;;;;;;;;;;;;;;28.00;55.49;94833.84;5156790;27;1079;-49
2022/06/23 10:33:43;;;;;;;;;;;;;;;28.10;55.58;94832.97;5156823;27;1040;-49
2022/06/23 10:36:09;;;;;;;;;;;;;;;28.04;55.76;94834.09;5117461;27;1086;-49
2022/06/23 10:38:51;;;;;;;;;;;;;;;27.94;55.65;94828.59;5157035;27;1014;-49
2022/06/23 10:41:23;;;;;;;;;;;;;;;27.94;55.12;94823.94;5156611;27;1988;-49
2022/06/23 10:43:49;;;;;;;;;;;;;;;27.91;54.42;94820.94;5156752;27;1044;-49
2022/06/23 10:46:18;;;;;;;;;;;;;;;27.97;54.63;94826.13;5156586;27;1071;-49
2022/06/23 10:49:08;;;;;;;;;;;;;;;28.17;56.67;94828.00;5156654;27;1032;-49
2022/06/23 10:51:42;;;;;;;;;;;;;;;28.64;57.14;94822.34;5155993;27;1028;-49
2022/06/23 10:54:14;;;;;;;;;;;;;;;28.74;53.86;94831.38;5156442;27;956;-49
2022/06/23 10:57:01;;;;;;;;;;;;;;;28.59;57.47;94824.00;5156291;27;1091;-49
2022/06/23 10:59:33;;;;;;;;;;;;;;;28.41;57.05;94824.59;5156489;27;1906;-49
2022/06/23 11:02:05;;;;;;;;;;;;;;;28.23;56.91;94818.63;5156342;27;1062;-49
2022/06/23 11:04:34;;;;;;;;;;;;;;;28.03;57.64;94815.94;5156268;27;1059;-49
2022/06/23 11:07:03;;;;;;;;;;;;;;;27.63;58.89;94823.16;5143895;27;1180;-49
2022/06/23 11:09:31;;;;;;;;;;;;;;;27.22;58.81;94825.88;5135715;27;1051;-49
2022/06/23 11:12:00;;;;;;;;;;;;;;;26.91;60.91;94849.72;5135467;27;952;-49
2022/06/23 11:14:59;;;;;;;;;;;;;;;26.79;60.93;94869.16;5135535;27;1019;-49
2022/06/23 11:17:34;;;;;;;;;;;;;;;26.70;61.73;94874.34;5079054;27;1884;-49
2022/06/23 11:20:27;;;;;;;;;;;;;;;26.60;61.28;94904.47;5135540;27;1992;-48
2022/06/23 11:22:53;;;;;;;;;;;;;;;26.44;61.14;94928.19;5135401;27;984;-49
2022/06/23 11:25:29;;;;;;;;;;;;;;;26.25;59.48;94925.91;5135084;27;1020;-49
2022/06/23 11:28:04;;;;;;;;;;;;;;;25.78;62.34;94943.09;5117228;27;1045;-48
2022/06/23 11:30:48;;;;;;;;;;;;;;;25.22;63.45;94961.72;5135072;27;1032;-49
2022/06/23 11:33:33;;;;;;;;;;;;;;;24.85;65.29;94967.84;5135169;27;1067;-49
2022/06/23 11:35:59;;;;;;;;;;;;;;;24.64;66.81;94983.16;5135178;27;975;-49
2022/06/23 11:38:28;;;;;;;;;;;;;;;24.46;67.68;94962.41;5135199;27;1024;-48
2022/06/23 11:40:54;;;;;;;;;;;;;;;24.29;67.37;94962.47;5134970;27;1897;-48
2022/06/23 11:43:39;;;;;;;;;;;;;;;24.14;70.48;94946.69;5135122;27;1024;-48
2022/06/23 11:46:19;;;;;;;;;;;;;;;24.08;68.25;94923.09;5134266;27;996;-48
2022/06/23 11:49:09;;;;;;;;;;;;;;;24.02;70.04;94933.13;5135125;27;969;-48
2022/06/23 11:51:38;;;;;;;;;;;;;;;23.91;70.33;94929.41;5116567;27;1615;-48
2022/06/23 11:54:10;;;;;;;;;;;;;;;24.00;70.35;94967.22;5134567;27;1859;-48
2022/06/23 11:57:00;;;;;;;;;;;;;;;24.06;67.25;94980.69;5134481;27;1064;-49
2022/06/23 11:59:45;;;;;;;;;;;;;;;24.29;66.58;94949.63;5134843;27;1918;-48
2022/06/23 12:02:11;;;;;;;;;;;;;;;24.46;65.88;94948.75;5116243;27;1055;-49
2022/06/23 12:04:59;;;;;;;;;;;;;;;24.69;66.46;94964.13;5134612;27;1059;-48
2022/06/23 12:07:25;;;;;;;;;;;;;;;24.74;67.25;94972.38;5150172;27;1204;-48
2022/06/23 12:09:51;;;;;;;;;;;;;;;24.81;66.88;94963.97;5155280;27;1047;-49
2022/06/23 12:12:17;;;;;;;;;;;;;;;24.75;69.54;94960.34;5136723;27;1254;-49
2022/06/23 12:14:44;;;;;;;;;;;;;;;24.77;67.41;94949.16;5155153;27;1016;-48
2022/06/23 12:17:17;;;;;;;;;;;;;;;24.78;68.07;94931.69;5136700;27;1028;-48
2022/06/23 12:19:51;;;;;;;;;;;;;;;24.75;69.47;94931.09;5154801;27;1941;-49
2022/06/23 12:22:20;;;;;;;;;;;;;;;24.84;66.55;94933.41;5154902;27;1091;-48
2022/06/23 12:25:04;;;;;;;;;;;;;;;25.16;64.10;94946.34;5154766;27;1967;-49
2022/06/23 12:27:36;;;;;;;;;;;;;;;25.45;62.71;94934.03;5154830;27;1110;-48
2022/06/23 12:30:12;;;;;;;;;;;;;;;25.71;62.42;94934.28;5155096;27;1027;-49
2022/06/23 12:32:49;;;;;;;;;;;;;;;25.73;64.66;94925.81;5154771;27;1123;-49
2022/06/23 12:35:25;;;;;;;;;;;;;;;25.69;62.17;94915.38;5154984;27;1040;-48
2022/06/23 12:38:29;;;;;;;;;;;;;;;25.64;61.33;94920.78;5154942;27;976;-48
2022/06/23 12:40:58;;;;;;;;;;;;;;;25.53;63.55;94930.00;5050850;28;1997;-48
2022/06/23 12:43:37;;;;;;;;;;;;;;;25.50;62.51;94927.81;5050551;28;1029;-49
2022/06/23 12:46:12;;;;;;;;;;;;;;;25.67;61.54;94924.94;5111188;27;1115;-48
2022/06/23 12:48:57;;;;;;;;;;;;;;;26.10;62.22;94906.63;5154692;27;937;-48
2022/06/23 12:51:29;;;;;;;;;;;;;;;26.52;62.22;94897.53;5154751;27;1024;-48
2022/06/23 12:53:55;;;;;;;;;;;;;;;26.52;61.26;94893.97;5154374;27;1103;-49
2022/06/23 12:56:34;;;;;;;;;;;;;;;26.45;60.97;94895.03;5154971;27;991;-48
2022/06/23 12:59:07;;;;;;;;;;;;;;;26.62;60.74;94881.16;5158825;27;1047;-48
2022/06/23 13:01:38;;;;;;;;;;;;;;;26.80;63.93;94877.09;5158637;27;1977;-49
2022/06/23 13:04:09;;;;;;;;;;;;;;;26.90;59.38;94878.22;5158925;27;1016;-49
2022/06/23 13:06:41;;;;;;;;;;;;;;;27.00;58.71;94884.56;5150201;27;1207;-49
2022/06/23 13:09:07;;;;;;;;;;;;;;;27.05;58.86;94894.72;5137970;27;957;-49
2022/06/23 13:11:47;;;;;;;;;;;;;;;27.15;58.95;94899.41;5137855;27;1044;-49
2022/06/23 13:14:17;;;;;;;;;;;;;;;27.18;59.40;94887.88;5137752;27;1027;-49
2022/06/23 13:16:56;;;;;;;;;;;;;;;27.03;58.88;94900.50;5137781;27;913;-49
2022/06/23 13:19:29;;;;;;;;;;;;;;;27.04;59.81;94904.06;5137782;27;1052;-49
2022/06/23 13:22:02;;;;;;;;;;;;;;;27.14;59.45;94919.72;5137867;27;999;-49
2022/06/23 13:24:32;;;;;;;;;;;;;;;27.05;64.48;94922.16;5137249;27;1040;-49
2022/06/23 13:26:58;;;;;;;;;;;;;;;26.82;63.91;94924.28;5137860;27;1032;-49
2022/06/23 13:29:27;;;;;;;;;;;;;;;26.53;64.61;94923.84;5137321;27;1124;-49
2022/06/23 13:32:05;;;;;;;;;;;;;;;26.47;65.70;94917.53;5137698;27;1022;-49
2022/06/23 13:34:33;;;;;;;;;;;;;;;26.50;64.31;94916.16;5137411;27;997;-49
2022/06/23 13:37:04;;;;;;;;;;;;;;;26.57;64.52;94921.41;5137388;27;1027;-49
2022/06/23 13:39:40;;;;;;;;;;;;;;;26.60;64.43;94921.75;5137357;27;1906;-49